MVGAL / M-VGAL 7700 Squawk Report (24th of September, 2018)

Time Lat Lon Altitude Heading Speed Vertical Rate
2018-09-24 19:36:09 GMT 48.222858 3.513023 14,900 0 0 0
2018-09-24 19:34:48 GMT 48.345428 3.176711 20,525 0 0 0
2018-09-24 19:34:07 GMT 48.382393 3.086869 16,925 123 465 -1408
2018-09-24 19:33:30 GMT 48.323086 3.227234 18,800 123 465 -1408
2018-09-24 19:33:17 GMT 48.336678 3.196877 19,425 123 465 -1408
2018-09-24 19:33:10 GMT 48.345802 3.175988 20,050 123 465 -1408
2018-09-24 19:33:05 GMT 48.350689 3.165002 20,350 123 465 -1408
2018-09-24 19:32:59 GMT 48.366611 3.128501 20,975 123 465 -1408
2018-09-24 19:32:52 GMT 48.366611 3.128501 21,225 123 465 -1408
2018-09-24 19:32:47 GMT 48.373314 3.112383 21,675 123 465 -1408
2018-09-24 19:32:40 GMT 48.381786 3.095109 21,775 123 465 -1408
2018-09-24 19:32:34 GMT 48.388908 3.078918 21,950 122 464 -1344
2018-09-24 19:32:26 GMT 48.396217 3.062078 22,025 122 464 -1344
2018-09-24 19:32:22 GMT 48.410511 3.030420 22,225 122 464 -1344
2018-09-24 19:32:15 GMT 48.410511 3.030420 22,250 122 464 -1344
2018-09-24 19:32:08 GMT 48.418797 3.012133 22,400 122 464 -1344
2018-09-24 19:31:21 GMT 48.473217 2.881092 23,550 0 0 0
2018-09-24 19:30:19 GMT 48.545979 2.710732 25,025 0 0 0
2018-09-24 19:29:15 GMT 48.704395 2.327873 26,700 0 0 0
2018-09-24 19:28:06 GMT 48.704395 2.327873 27,000 0 0 0
2018-09-24 19:27:01 GMT 48.779716 2.124264 29,900 126 500 -4928
2018-09-24 19:26:20 GMT 48.835018 2.007029 33,450 135 475 -600
2018-09-24 19:26:14 GMT 48.843399 1.993585 34,200 135 475 -600
2018-09-24 19:26:02 GMT 48.863789 1.965107 35,000 135 475 -600
2018-09-24 19:25:53 GMT 48.880314 1.941111 35,900 135 475 -600
2018-09-24 19:25:40 GMT 48.917416 1.888564 36,650 135 475 -600
2018-09-24 19:25:31 GMT 48.917416 1.888564 36,900 135 475 -600
2018-09-24 19:25:23 GMT 48.931522 1.867676 37,000 135 475 -600
2018-09-24 19:24:18 GMT 49.034275 1.725688 37,425 135 475 -600
2018-09-24 19:23:57 GMT 49.064301 1.680589 38,550 138 561 -60
2018-09-24 19:23:24 GMT 49.119568 1.599633 39,000 136 505 0
2018-09-24 19:23:00 GMT 49.159653 1.541565 39,000 125 340 0
2018-09-24 19:22:12 GMT 49.270443 1.407035 39,000 125 340 0
2018-09-24 19:21:48 GMT 49.309143 1.324726 39,000 138 556 0
2018-09-24 19:21:31 GMT 49.309143 1.324726 39,000 135 492 0
2018-09-24 19:21:11 GMT 49.341789 1.276873 39,000 136 496 0
2018-09-24 19:21:01 GMT 49.378456 1.223434 39,000 136 506 0
2018-09-24 19:20:49 GMT 49.401566 1.189309 39,000 139 548 0
2018-09-24 19:20:35 GMT 49.401566 1.189309 39,000 135 503 0
2018-09-24 19:20:16 GMT 49.441521 1.137414 39,000 134 466 0
2018-09-24 19:19:57 GMT 49.477673 1.085634 39,025 133 417 0
2018-09-24 19:19:36 GMT 49.499760 1.044423 39,000 134 516 0
2018-09-24 19:19:20 GMT 49.526779 1.002733 39,000 137 453 0
2018-09-24 19:19:08 GMT 49.547230 0.970731 39,000 137 464 0
2018-09-24 19:18:58 GMT 49.561054 0.951915 39,000 136 480 0
2018-09-24 19:18:46 GMT 49.580864 0.923457 39,000 135 471 0
2018-09-24 19:18:33 GMT 49.601143 0.892824 39,000 131 560 0
2018-09-24 19:18:22 GMT 49.619507 0.864556 39,000 133 514 0
2018-09-24 19:18:11 GMT 49.636646 0.837322 39,000 136 422 0
2018-09-24 19:18:00 GMT 49.652306 0.814531 39,000 138 532 0
2018-09-24 19:17:47 GMT 49.676208 0.781594 39,000 138 478 480
2018-09-24 19:17:37 GMT 49.692570 0.758236 39,000 141 467 1380
2018-09-24 19:17:27 GMT 49.709541 0.737515 38,950 140 446 780
2018-09-24 19:17:16 GMT 49.727131 0.715255 38,800 139 487 720
2018-09-24 19:17:05 GMT 49.745850 0.690103 38,575 139 441 240
2018-09-24 19:16:52 GMT 49.765877 0.663166 38,450 136 526 1680
2018-09-24 19:16:41 GMT 49.785107 0.635516 38,300 144 433 1080
2018-09-24 19:16:31 GMT 49.818096 0.596967 38,025 140 440 1260
2018-09-24 19:16:20 GMT 49.818096 0.596967 37,950 137 514 1560
2018-09-24 19:16:10 GMT 49.834679 0.573877 37,725 138 501 1620
2018-09-24 19:16:00 GMT 49.855892 0.549152 37,500 139 470 1800
2018-09-24 19:15:47 GMT 49.877426 0.520642 37,075 136 395 1740
2018-09-24 19:15:36 GMT 49.892006 0.499057 36,850 139 483 3420
2018-09-24 19:15:22 GMT 49.915558 0.467451 36,600 143 430 1860
2018-09-24 19:15:11 GMT 49.935371 0.445665 36,225 140 535 900
2018-09-24 19:15:01 GMT 49.954517 0.421225 36,100 137 374 1320
2018-09-24 19:14:49 GMT 49.969734 0.399174 35,800 138 457 900
2018-09-24 19:14:39 GMT 49.985687 0.377549 35,600 139 490 1560
2018-09-24 19:14:28 GMT 50.005043 0.352462 35,200 141 534 2100
2018-09-24 19:14:17 GMT 50.026379 0.326181 34,950 139 479 1980
2018-09-24 19:14:05 GMT 50.049473 0.298703 34,500 137 476 2280
2018-09-24 19:13:55 GMT 50.063622 0.277169 34,200 137 454 1560
2018-09-24 19:13:41 GMT 50.082607 0.248819 33,600 141 454 1080
2018-09-24 19:13:31 GMT 50.098854 0.226341 33,300 133 419 2220
2018-09-24 19:13:20 GMT 50.115643 0.203801 33,000 140 569 900
2018-09-24 19:13:08 GMT 50.140156 0.172607 32,650 144 516 -4560
2018-09-24 19:12:58 GMT 50.159901 0.150898 32,475 129 328 1140
2018-09-24 19:12:47 GMT 50.171913 0.129602 32,125 136 531 1500
2018-09-24 19:12:37 GMT 50.188248 0.107295 31,775 137 483 1020
2018-09-24 19:12:26 GMT 50.208069 0.081306 31,650 140 477 1140
2018-09-24 19:12:14 GMT 50.250473 0.026477 31,325 140 504 1620
2018-09-24 19:12:03 GMT 50.250473 0.026477 31,100 136 352 1260
2018-09-24 19:11:53 GMT 50.262260 0.008837 30,850 136 441 2340
2018-09-24 19:11:43 GMT 50.277084 -0.013140 30,550 140 478 2280
2018-09-24 19:11:30 GMT 50.315289 -0.065716 30,225 135 477 1260
2018-09-24 19:11:19 GMT 50.315289 -0.065716 29,975 141 517 2400
2018-09-24 19:11:09 GMT 50.333992 -0.089152 29,675 142 392 1380
2018-09-24 19:10:59 GMT 50.348476 -0.106265 29,500 136 412 1440
2018-09-24 19:10:38 GMT 50.379066 -0.150462 28,875 142 508 1080
2018-09-24 19:10:28 GMT 50.397827 -0.172696 28,600 139 469 1800
2018-09-24 19:10:17 GMT 50.411739 -0.195637 28,325 141 441 1500
2018-09-24 19:10:07 GMT 50.426384 -0.215350 27,800 139 487 1200
2018-09-24 19:09:57 GMT 50.443600 -0.238271 27,650 137 409 2880
2018-09-24 19:09:47 GMT 50.457626 -0.258322 27,500 139 433 1680
2018-09-24 19:09:37 GMT 50.473167 -0.279016 27,150 137 375 1560
2018-09-24 19:09:27 GMT 50.485874 -0.297609 26,900 142 549 2220
2018-09-24 19:09:17 GMT 50.506844 -0.324274 26,475 134 327 480
2018-09-24 19:09:07 GMT 50.517540 -0.341144 26,200 140 447 1680
2018-09-24 19:08:57 GMT 50.533485 -0.361860 25,775 138 393 1140
2018-09-24 19:08:46 GMT 50.548634 -0.382146 25,550 137 415 1560
2018-09-24 19:08:35 GMT 50.564072 -0.404431 25,175 139 455 1500
2018-09-24 19:08:24 GMT 50.582214 -0.428239 24,925 137 402 1680
2018-09-24 19:08:14 GMT 50.596684 -0.448729 24,600 138 375 4320
2018-09-24 19:08:04 GMT 50.609524 -0.467287 24,250 147 453 2340
2018-09-24 19:07:54 GMT 50.623619 -0.485236 23,875 135 372 1800
2018-09-24 19:07:44 GMT 50.636005 -0.504158 23,500 140 476 1500
2018-09-24 19:07:34 GMT 50.652969 -0.526377 23,075 137 395 2460
2018-09-24 19:07:24 GMT 50.667095 -0.546130 22,675 139 407 1560
2018-09-24 19:07:13 GMT 50.681892 -0.566489 22,400 144 412 1920
2018-09-24 19:07:03 GMT 50.695629 -0.585972 21,950 138 392 1380
2018-09-24 19:06:53 GMT 50.723362 -0.623926 21,675 135 377 2160
2018-09-24 19:06:43 GMT 50.723362 -0.623926 21,325 139 408 3900
2018-09-24 19:06:32 GMT 50.738941 -0.645449 20,325 137 399 2340
2018-09-24 19:06:22 GMT 50.752159 -0.669603 20,475 136 290 3840
2018-09-24 19:06:12 GMT 50.762547 -0.688838 20,025 120 336 2280
2018-09-24 19:06:02 GMT 50.770557 -0.709943 19,725 116 430 3900
2018-09-24 19:05:51 GMT 50.779438 -0.739588 19,400 114 378 3540
2018-09-24 19:05:40 GMT 50.787731 -0.768667 19,100 112 343 0
2018-09-24 19:05:29 GMT 50.795006 -0.793645 18,650 104 354 2520
2018-09-24 19:05:18 GMT 50.802544 -0.821245 18,200 112 361 2820
2018-09-24 19:05:08 GMT 50.808708 -0.845266 17,775 114 367 1380
2018-09-24 19:04:57 GMT 50.816521 -0.872175 17,250 117 387 0
2018-09-24 19:04:47 GMT 50.822571 -0.896479 17,000 115 361 -60
2018-09-24 19:04:35 GMT 50.832386 -0.924082 17,025 104 395 60
2018-09-24 19:04:24 GMT 50.840546 -0.954184 17,000 102 324 360
2018-09-24 19:04:13 GMT 50.843819 -0.978583 17,000 95 400 1260
2018-09-24 19:04:02 GMT 50.845661 -1.010711 16,950 87 319 5160
2018-09-24 19:03:51 GMT 50.844597 -1.037539 16,650 84 358 7560
2018-09-24 19:03:40 GMT 50.841946 -1.065011 15,725 89 389 0
2018-09-24 19:03:30 GMT 50.841637 -1.091258 15,475 90 342 -600
2018-09-24 19:03:18 GMT 50.840214 -1.121475 15,275 84 351 1200
2018-09-24 19:03:05 GMT 50.839081 -1.153581 14,875 91 328 4140
2018-09-24 19:02:54 GMT 50.837055 -1.178463 14,525 89 327 2400
2018-09-24 19:02:43 GMT 50.833755 -1.207868 14,150 100 318 5040
2018-09-24 19:02:32 GMT 50.836395 -1.234713 13,675 80 305 2880
2018-09-24 19:02:21 GMT 50.833836 -1.259009 13,325 91 332 60
2018-09-24 19:02:10 GMT 50.833431 -1.284595 12,975 84 315 1800
2018-09-24 19:01:59 GMT 50.832123 -1.309930 12,550 84 318 1860
2018-09-24 19:01:49 GMT 50.829865 -1.356686 12,175 84 313 2400
2018-09-24 19:01:38 GMT 50.829865 -1.356686 11,875 85 320 1260
2018-09-24 19:01:26 GMT 50.828381 -1.384444 11,600 87 293 3420
2018-09-24 19:01:15 GMT 50.827457 -1.408889 11,175 86 305 1380
2018-09-24 19:01:05 GMT 50.824669 -1.429130 10,825 84 302 1500
2018-09-24 19:00:55 GMT 50.823364 -1.451157 10,600 87 312 1620
2018-09-24 19:00:45 GMT 50.824245 -1.474245 10,275 86 316 180
2018-09-24 19:00:33 GMT 50.822487 -1.501919 10,000 89 286 960

Making use of Plane Finder data

You are free to use the raw flight data, aircraft information and images provided in this report for your own purposes provided the data is correctly attributed to Plane Finder. We ask that you please credit Plane Finder and link to planefinder.net in close proximity to the content.

Optionally one of the following logos (no smaller then 150x24px) can be used and must link to planefinder.net

Embedding the Plane Finder map

You are welcome to embed the Plane Finder playback map on your website to offer visitors a more interactive experience. We suggest using the following HTML code:

<iframe src="//planefinder.net/data/report/MVGAL-M-VGAL-7700-squawk-2018-09-24/map" width="800" height="600" seamless="seamless"></iframe>

Where our data comes from

Plane Finder has a global network of data feeds and antenna radars that receive data broadcast directly from aircraft. The primary technologies used are ADS-B and MLAT. We also show feeds from the FAA and a FLARM glider feed.

Click here to find out more about the Plane Finder network.

How we collect our data